Redwood City, CA (94065)

7:42 PM PST on December 19, 2014 (GMT -0800)
Neighborhood 4 | Change Station
CLOSE
Current Station
Personal Weather Station
Location: Foster City, CA
Elevation: 7 ft
Nearby Weather Stations

Elev 7 ft 37.55 °N, 122.26 °W | Updated 9 seconds ago

Overcast
Overcast
56.0 °F
Feels Like 56.0 °F
N
0.0
Wind Variable Wind from NW
Gusts 0.0 mph

Today
High -- | Low -- °F
--% Chance of Precip.
Yesterday
High -- | Low -- °F
Precip. -- in
7:19 AM 4:53 PM
Waning Crescent, 5% visible
Pressure 30.15 in
Visibility -9999.0 miles
Clouds Mostly Cloudy 500 ft
Overcast 800 ft
Dew Point 54 °F
Humidity 92%
Rainfall 0.14 in
Snow Depth Not available.
UV 0.0 out of 12
Pollen 2.00 out of 12
Air Quality Not available.
Flu Activity Not available.
SPECI KSQL 200255Z 15003KT 7 SM BKN005 OVC008 13/13 A3015

More Conditions Fewer Conditions

Pressure 30.15 in
Visibility -9999.0 miles
Clouds Mostly Cloudy 500 ft
Overcast 800 ft
Dew Point 54 °F
Humidity 92%
Rainfall 0.14 in
Snow Depth Not available.
UV 0.0 out of 12
Pollen 2.00 out of 12
Air Quality Not available.
Flu Activity Not available.
SPECI KSQL 200255Z 15003KT 7 SM BKN005 OVC008 13/13 A3015

More Conditions Fewer Conditions

10-Day Weather Forecast

Almanac

Astronomy

Dec. 19, 2014 Rise Set
Actual Time
Civil Twilight
Nautical Twilight
Astronomical Twilight
Moon
Length of Visible Light
Length of Day
Tomorrow will be .
, % of the Moon is Illuminated

Today's Extremes

State Highs State Lows

Community

WunderPhotos

Upload Photos

1,779,126 photos uploaded!

WunderBlogs® & News

Nearby

Air Quality

  Air Quality AQ Index Pollutant
Not available.

Snow Depth

Station Depth Elevation

Earthquake Activity

City Distance Mag. Time & Date
Minimum magnitude displayed is 2.5.

Coastal Water Temperatures

Place Temperature

Nearby Weather Stations